Aviation Digital Data Service (ADDS)

Output produced by METARs form (1711 UTC 23 October 2014)
found at http://www.aviationweather.gov/adds/metars/
 
KPHL 231504Z 2315/2418 32015G25KT P6SM -RA SCT018 OVC050 
     TEMPO 2315/2317 OVC018 
     FM231700 32015G25KT P6SM SCT035 OVC050 
     TEMPO 2317/2319 -RA OVC035 
     FM240200 33015KT P6SM SCT030 OVC050 
     FM241500 31014G22KT P6SM SCT050 SCT100